Estill, Mississippi
Current Conditions -  °F | °C
As of 8:53 PM on Saturday 25 Oct 2014 (Local Time) from KGLH Reporting Station
Clear Clear  
Wind Chill: 68°   Ceiling: Unl
Heat Index: 68°   Visibility: 10mi
Dew Point: 63°   Wind: 6mph
Humidity: 84%   Direction: 230°SW
Pressure: 30.05"   Gusts: NA
Location:  33.1785°N, 90.8086°W
Report Text: KGLH 260153Z AUTO 23005KT 10SM CLR 20/17 A3005 RMK AO2 SLP182 T02000172
Loading
Personal Weather Stations






























Interactive Weather Map
Tropical Storm Tracking
New forecast layout! Learn more

10-Day Weather Forecast

Advertisements
Track Severe Weather on mobile